createdAt,value
2022-11-30T00:00:13.477Z,6.48
2022-11-30T00:02:40.195Z,6.63
2022-11-30T00:05:07.527Z,6.55
2022-11-30T00:07:34.377Z,7.07
2022-11-30T00:10:01.230Z,6.52
2022-11-30T00:12:28.663Z,6.89
2022-11-30T00:14:55.436Z,6.11
2022-11-30T00:17:22.117Z,7.18
2022-11-30T00:19:48.863Z,6.72
2022-11-30T00:22:15.518Z,6.51
2022-11-30T00:24:42.161Z,6.17
2022-11-30T00:27:08.779Z,5.71
2022-11-30T00:29:35.353Z,6.52
2022-11-30T00:32:01.989Z,6.62
2022-11-30T00:34:28.722Z,6.65
2022-11-30T00:36:55.362Z,5.67
2022-11-30T00:39:22.007Z,5.93
2022-11-30T00:41:48.655Z,5.47
2022-11-30T00:44:15.373Z,5.93
2022-11-30T00:46:41.962Z,5.71
2022-11-30T00:49:08.565Z,5.69
2022-11-30T00:51:35.184Z,5.85
2022-11-30T00:54:01.766Z,5.72
2022-11-30T00:56:28.372Z,5.93
2022-11-30T00:58:55.016Z,5.45
2022-11-30T01:01:21.678Z,5.37
2022-11-30T01:03:48.305Z,5.68
2022-11-30T01:06:14.880Z,5.63
2022-11-30T01:08:41.470Z,5.33
2022-11-30T01:11:27.667Z,5.22
2022-11-30T01:13:54.435Z,5.42
2022-11-30T01:16:23.241Z,5.11
2022-11-30T01:18:50.127Z,5.66
2022-11-30T01:21:19.235Z,5.37
2022-11-30T01:23:45.922Z,6.17
2022-11-30T01:26:12.647Z,5.72
2022-11-30T01:28:39.246Z,6.16
2022-11-30T01:31:07.393Z,5.98
2022-11-30T01:33:34.020Z,5.93
2022-11-30T01:36:10.792Z,6.00
2022-11-30T01:38:41.797Z,7.10
2022-11-30T01:41:09.139Z,6.55
2022-11-30T01:43:42.637Z,6.48
2022-11-30T01:46:25.214Z,7.23
2022-11-30T01:48:57.085Z,6.54
2022-11-30T01:51:23.706Z,6.77
2022-11-30T01:53:50.640Z,6.97
2022-11-30T01:56:17.316Z,6.97
2022-11-30T01:58:44.025Z,6.60
2022-11-30T02:01:10.649Z,6.18
2022-11-30T02:03:43.865Z,6.74
2022-11-30T02:06:10.507Z,6.71
2022-11-30T02:08:37.367Z,6.66
2022-11-30T02:11:06.408Z,6.70
2022-11-30T02:13:39.224Z,6.57
2022-11-30T02:16:17.659Z,6.89
2022-11-30T02:18:55.902Z,6.78
2022-11-30T02:21:26.198Z,6.50
2022-11-30T02:24:10.867Z,6.84
2022-11-30T02:27:15.369Z,6.94
2022-11-30T02:30:05.504Z,6.50
2022-11-30T02:32:33.912Z,7.29
2022-11-30T02:35:03.314Z,6.56
2022-11-30T02:37:29.951Z,6.30
2022-11-30T02:39:56.660Z,6.45
2022-11-30T02:42:23.300Z,6.52
2022-11-30T02:44:51.146Z,6.33
2022-11-30T02:47:27.958Z,6.17
2022-11-30T02:49:55.438Z,6.61
2022-11-30T02:52:27.073Z,6.15
2022-11-30T02:54:58.688Z,6.46
2022-11-30T02:57:25.346Z,6.77
2022-11-30T02:59:52.143Z,6.39
2022-11-30T03:02:18.832Z,6.45
2022-11-30T03:04:45.665Z,6.55
2022-11-30T03:07:12.542Z,6.91
2022-11-30T03:09:39.182Z,6.79
2022-11-30T03:12:05.977Z,7.17
2022-11-30T03:14:32.971Z,6.79
2022-11-30T03:16:59.616Z,6.89
2022-11-30T03:19:26.205Z,7.26
2022-11-30T03:21:52.801Z,7.12
2022-11-30T03:24:19.445Z,7.00
2022-11-30T03:26:46.076Z,6.90
2022-11-30T03:29:12.719Z,7.26
2022-11-30T03:31:39.424Z,7.47
2022-11-30T03:34:06.061Z,7.44
2022-11-30T03:36:32.697Z,6.89
2022-11-30T03:38:59.310Z,6.94
2022-11-30T03:41:26.142Z,6.49
2022-11-30T03:43:52.743Z,6.91
2022-11-30T03:46:19.455Z,6.63
2022-11-30T03:48:46.100Z,7.27
2022-11-30T03:51:12.800Z,7.66
2022-11-30T03:53:39.483Z,7.36
2022-11-30T03:56:07.712Z,7.49
2022-11-30T03:58:34.450Z,8.33
2022-11-30T04:01:00.914Z,8.68
2022-11-30T04:03:28.558Z,8.19
2022-11-30T04:05:55.445Z,7.90
2022-11-30T04:08:22.271Z,8.32
2022-11-30T04:10:52.318Z,8.37
2022-11-30T04:13:19.787Z,7.92
2022-11-30T04:15:47.388Z,8.09
2022-11-30T04:18:14.715Z,7.80
2022-11-30T04:20:41.426Z,7.62
2022-11-30T04:23:09.076Z,8.09
2022-11-30T04:25:40.863Z,7.70
2022-11-30T04:28:07.855Z,6.77
2022-11-30T04:30:34.627Z,7.30
2022-11-30T04:33:01.427Z,7.43
2022-11-30T04:35:28.049Z,7.43
2022-11-30T04:37:54.685Z,7.15
2022-11-30T04:40:21.293Z,7.19
2022-11-30T04:42:47.869Z,6.64
2022-11-30T04:45:14.493Z,6.85
2022-11-30T04:47:41.223Z,6.84
2022-11-30T04:50:08.051Z,6.98
2022-11-30T04:52:35.514Z,6.44
2022-11-30T04:55:02.172Z,6.93
2022-11-30T04:57:28.769Z,7.34
2022-11-30T04:59:55.364Z,6.73
2022-11-30T05:02:22.005Z,6.55
2022-11-30T05:04:48.998Z,6.50
2022-11-30T05:07:15.806Z,6.41
2022-11-30T05:09:42.397Z,7.09
2022-11-30T05:12:09.025Z,7.00
2022-11-30T05:14:35.660Z,7.07
2022-11-30T05:17:02.252Z,6.86
2022-11-30T05:19:28.875Z,7.00
2022-11-30T05:21:55.490Z,6.98
2022-11-30T05:24:22.060Z,6.83
2022-11-30T05:26:48.703Z,7.08
2022-11-30T05:29:15.381Z,7.05
2022-11-30T05:31:42.060Z,7.77
2022-11-30T05:34:08.778Z,7.56
2022-11-30T05:36:35.426Z,6.86
2022-11-30T05:39:02.090Z,7.09
2022-11-30T05:41:28.740Z,6.30
2022-11-30T05:43:55.351Z,6.63
2022-11-30T05:46:22.076Z,6.27
2022-11-30T05:48:48.778Z,5.17
2022-11-30T05:51:16.674Z,5.03
2022-11-30T05:53:43.896Z,4.87
2022-11-30T05:56:15.260Z,4.78
2022-11-30T05:58:41.939Z,4.65
2022-11-30T06:01:08.577Z,4.89
2022-11-30T06:03:35.352Z,4.70
2022-11-30T06:06:02.085Z,5.23
2022-11-30T06:08:28.656Z,5.46
2022-11-30T06:11:00.303Z,5.15
2022-11-30T06:13:28.966Z,5.20
2022-11-30T06:15:59.119Z,5.22
2022-11-30T06:18:25.856Z,5.04
2022-11-30T06:20:52.511Z,5.29
2022-11-30T06:23:19.135Z,5.27
2022-11-30T06:25:45.777Z,5.27
2022-11-30T06:28:12.364Z,5.40
2022-11-30T06:30:39.051Z,5.44
2022-11-30T06:33:05.746Z,4.96
2022-11-30T06:35:32.421Z,5.10
2022-11-30T06:37:59.011Z,5.21
2022-11-30T06:40:25.639Z,5.05
2022-11-30T06:42:52.287Z,5.24
2022-11-30T06:45:18.944Z,5.15
2022-11-30T06:47:45.589Z,5.32
2022-11-30T06:50:13.058Z,5.47
2022-11-30T06:52:39.656Z,5.57
2022-11-30T06:55:06.760Z,5.35
2022-11-30T06:57:33.392Z,4.95
2022-11-30T07:00:00.044Z,5.80
2022-11-30T07:02:26.740Z,5.69
2022-11-30T07:04:53.377Z,5.75
2022-11-30T07:07:20.054Z,5.53
2022-11-30T07:09:46.763Z,6.16
2022-11-30T07:12:13.370Z,5.95
2022-11-30T07:14:40.038Z,6.12
2022-11-30T07:17:06.640Z,6.23
2022-11-30T07:19:33.221Z,5.79
2022-11-30T07:21:59.919Z,5.85
2022-11-30T07:24:26.505Z,5.90
2022-11-30T07:26:53.180Z,5.80
2022-11-30T07:29:19.891Z,5.64
2022-11-30T07:31:50.545Z,6.31
2022-11-30T07:34:17.170Z,5.57
2022-11-30T07:36:43.858Z,5.80
2022-11-30T07:39:10.490Z,5.77
2022-11-30T07:41:37.120Z,5.64
2022-11-30T07:44:04.701Z,5.91
2022-11-30T07:46:31.343Z,5.51
2022-11-30T07:48:57.993Z,5.49
2022-11-30T07:51:24.628Z,5.26
2022-11-30T07:53:51.338Z,4.94
2022-11-30T07:56:19.322Z,5.00
2022-11-30T07:58:45.981Z,5.03
2022-11-30T08:01:14.831Z,4.87
2022-11-30T08:03:41.814Z,5.77
2022-11-30T08:06:12.865Z,5.75
2022-11-30T08:08:41.051Z,6.41
2022-11-30T08:11:08.386Z,5.88
2022-11-30T08:13:35.026Z,5.71
2022-11-30T08:16:12.561Z,5.94
2022-11-30T08:18:39.660Z,6.00
2022-11-30T08:21:06.958Z,6.02
2022-11-30T08:23:36.593Z,5.38
2022-11-30T08:26:04.023Z,5.42
2022-11-30T08:28:30.718Z,5.52
2022-11-30T08:31:00.753Z,5.59
2022-11-30T08:33:30.600Z,6.06
2022-11-30T08:36:11.369Z,5.47
2022-11-30T08:38:38.562Z,6.33
2022-11-30T08:41:05.826Z,6.17
2022-11-30T08:43:32.421Z,6.10
2022-11-30T08:45:59.043Z,5.92
2022-11-30T08:48:26.950Z,5.98
2022-11-30T08:50:53.670Z,5.78
2022-11-30T08:53:20.270Z,5.15
2022-11-30T08:56:06.612Z,5.42
2022-11-30T08:58:35.321Z,5.96
2022-11-30T09:01:17.967Z,5.89
2022-11-30T09:03:45.149Z,5.63
2022-11-30T09:06:13.710Z,5.78
2022-11-30T09:08:41.268Z,5.93
2022-11-30T09:11:12.311Z,5.81
2022-11-30T09:13:39.491Z,5.92
2022-11-30T09:16:06.401Z,5.49
2022-11-30T09:18:33.047Z,6.00
2022-11-30T09:21:03.735Z,5.83
2022-11-30T09:23:30.344Z,5.89
2022-11-30T09:26:00.779Z,5.85
2022-11-30T09:28:27.496Z,6.07
2022-11-30T09:30:54.704Z,5.93
2022-11-30T09:33:21.373Z,6.22
2022-11-30T09:35:57.643Z,6.35
2022-11-30T09:38:24.327Z,6.59
2022-11-30T09:40:54.764Z,6.49
2022-11-30T09:43:27.157Z,7.16
2022-11-30T09:45:56.990Z,7.57
2022-11-30T09:48:29.775Z,7.86
2022-11-30T09:50:56.407Z,7.67
2022-11-30T09:53:29.751Z,7.99
2022-11-30T09:55:56.666Z,9.28
2022-11-30T09:58:41.641Z,8.85
2022-11-30T10:01:13.653Z,7.56
2022-11-30T10:03:40.446Z,7.16
2022-11-30T10:06:12.443Z,7.30
2022-11-30T10:09:05.185Z,7.39
2022-11-30T10:11:45.669Z,6.30
2022-11-30T10:14:15.208Z,6.32
2022-11-30T10:16:56.870Z,6.00
2022-11-30T10:19:44.592Z,6.01
2022-11-30T10:22:26.667Z,5.53
2022-11-30T10:25:15.218Z,5.32
2022-11-30T10:27:53.889Z,5.15
2022-11-30T10:30:31.349Z,5.38
2022-11-30T10:33:00.047Z,5.21
2022-11-30T10:35:33.561Z,4.76
2022-11-30T10:38:01.531Z,5.14
2022-11-30T10:40:40.278Z,4.96
2022-11-30T10:43:27.045Z,5.40
2022-11-30T10:45:53.843Z,5.15
2022-11-30T10:48:40.741Z,5.23
2022-11-30T10:51:07.384Z,5.36
2022-11-30T10:53:34.000Z,4.70
2022-11-30T10:56:06.085Z,4.93
2022-11-30T10:58:44.937Z,5.00
2022-11-30T11:01:28.927Z,4.57
2022-11-30T11:04:07.715Z,4.52
2022-11-30T11:06:34.435Z,4.32
2022-11-30T11:09:26.593Z,3.99
2022-11-30T11:11:54.282Z,3.91
2022-11-30T11:14:22.193Z,4.33
2022-11-30T11:16:57.488Z,4.37
2022-11-30T11:19:30.634Z,4.60
2022-11-30T11:21:57.269Z,4.41
2022-11-30T11:24:26.508Z,4.35
2022-11-30T11:26:53.116Z,4.47
2022-11-30T11:29:37.849Z,4.40
2022-11-30T11:32:23.588Z,4.43
2022-11-30T11:34:51.500Z,4.29
2022-11-30T11:37:21.942Z,4.32
2022-11-30T11:40:18.770Z,4.27
2022-11-30T11:42:49.911Z,4.32
2022-11-30T11:45:36.644Z,4.25
2022-11-30T11:48:05.122Z,4.18
2022-11-30T11:51:06.039Z,4.41
2022-11-30T11:53:24.412Z,4.27
2022-11-30T11:55:52.956Z,4.29
2022-11-30T11:58:25.420Z,4.20
2022-11-30T12:01:01.302Z,3.67
2022-11-30T12:03:45.611Z,4.04
2022-11-30T12:06:14.436Z,4.01
2022-11-30T12:08:53.045Z,3.99
2022-11-30T12:11:33.191Z,3.78
2022-11-30T12:13:59.788Z,3.58
2022-11-30T12:16:45.069Z,3.93
2022-11-30T12:19:49.362Z,3.83
2022-11-30T12:22:22.263Z,3.97
2022-11-30T12:24:54.693Z,4.11
2022-11-30T12:27:36.348Z,4.22
2022-11-30T12:30:22.392Z,4.00
2022-11-30T12:33:11.702Z,3.79
2022-11-30T12:35:56.870Z,3.80
2022-11-30T12:38:41.953Z,3.78
2022-11-30T12:41:14.237Z,4.01
2022-11-30T12:43:59.001Z,3.84
2022-11-30T12:46:46.407Z,4.16
2022-11-30T12:49:28.196Z,4.29
2022-11-30T12:52:03.266Z,4.10
2022-11-30T12:54:53.891Z,4.21
2022-11-30T12:57:24.369Z,4.50
2022-11-30T13:00:05.936Z,4.91
2022-11-30T13:03:00.413Z,4.55
2022-11-30T13:05:31.904Z,4.45
2022-11-30T13:08:20.347Z,4.66
2022-11-30T13:10:48.017Z,4.36
2022-11-30T13:13:33.667Z,4.28
2022-11-30T13:16:00.262Z,4.83
2022-11-30T13:18:26.896Z,4.85
2022-11-30T13:21:22.233Z,5.02
2022-11-30T13:23:57.740Z,4.78
2022-11-30T13:26:31.215Z,5.33
2022-11-30T13:29:11.872Z,7.60
2022-11-30T13:31:43.584Z,5.40
2022-11-30T13:34:29.213Z,5.22
2022-11-30T13:37:05.238Z,4.84
2022-11-30T13:39:40.887Z,5.24
2022-11-30T13:42:07.388Z,5.16
2022-11-30T13:44:38.434Z,4.88
2022-11-30T13:47:26.481Z,5.54
2022-11-30T13:49:57.272Z,5.02
2022-11-30T13:52:57.947Z,5.04
2022-11-30T13:56:09.443Z,5.35
2022-11-30T13:58:36.129Z,5.73
2022-11-30T14:01:20.571Z,5.48
2022-11-30T14:04:14.860Z,5.35
2022-11-30T14:06:41.387Z,5.68
2022-11-30T14:09:14.713Z,5.77
2022-11-30T14:11:42.629Z,6.10
2022-11-30T14:14:44.942Z,5.81
2022-11-30T14:17:23.192Z,6.12
2022-11-30T14:19:52.836Z,6.19
2022-11-30T14:22:19.441Z,6.10
2022-11-30T14:24:47.431Z,6.18
2022-11-30T14:27:20.302Z,6.50
2022-11-30T14:29:48.792Z,6.25
2022-11-30T14:32:33.577Z,6.52
2022-11-30T14:35:14.208Z,6.63
2022-11-30T14:37:54.831Z,6.89
2022-11-30T14:40:25.826Z,6.95
2022-11-30T14:42:54.138Z,8.11
2022-11-30T14:45:28.651Z,6.97
2022-11-30T14:48:06.806Z,6.63
2022-11-30T14:50:33.412Z,6.46
2022-11-30T14:53:21.790Z,7.67
2022-11-30T14:55:52.476Z,7.41
2022-11-30T14:58:43.744Z,6.92
2022-11-30T15:01:27.189Z,7.46
2022-11-30T15:03:55.449Z,6.98
2022-11-30T15:06:24.515Z,6.92
2022-11-30T15:08:52.782Z,6.88
2022-11-30T15:11:19.418Z,7.20
2022-11-30T15:13:50.851Z,7.36
2022-11-30T15:16:22.051Z,7.04
2022-11-30T15:18:48.980Z,7.83
2022-11-30T15:21:18.860Z,8.20
2022-11-30T15:23:50.949Z,8.73
2022-11-30T15:26:21.496Z,10.04
2022-11-30T15:28:56.520Z,10.64
2022-11-30T15:31:23.234Z,10.92
2022-11-30T15:33:49.967Z,10.46
2022-11-30T15:36:31.865Z,10.04
2022-11-30T15:39:01.617Z,10.64
2022-11-30T15:41:28.202Z,10.25
2022-11-30T15:43:55.924Z,10.02
2022-11-30T15:46:45.807Z,9.52
2022-11-30T15:49:12.803Z,10.06
2022-11-30T15:51:44.396Z,10.03
2022-11-30T15:54:11.085Z,9.50
2022-11-30T15:56:37.672Z,9.52
2022-11-30T15:59:17.322Z,9.72
2022-11-30T16:02:00.120Z,9.29
2022-11-30T16:04:27.217Z,9.43
2022-11-30T16:06:53.883Z,9.55
2022-11-30T16:09:28.194Z,9.43
2022-11-30T16:11:55.561Z,10.94
2022-11-30T16:14:22.213Z,10.33
2022-11-30T16:16:49.081Z,10.84
2022-11-30T16:19:15.706Z,11.35
2022-11-30T16:21:42.386Z,11.17
2022-11-30T16:24:13.307Z,11.26
2022-11-30T16:26:55.365Z,11.26
2022-11-30T16:29:22.122Z,11.71
2022-11-30T16:31:48.867Z,12.20
2022-11-30T16:34:15.523Z,11.40
2022-11-30T16:36:42.128Z,11.35
2022-11-30T16:39:11.030Z,10.61
2022-11-30T16:41:37.657Z,11.10
2022-11-30T16:44:05.477Z,10.74
2022-11-30T16:46:32.074Z,10.55
2022-11-30T16:48:58.680Z,11.00
2022-11-30T16:51:28.407Z,10.97
2022-11-30T16:53:55.199Z,11.41
2022-11-30T16:56:21.858Z,11.39
2022-11-30T16:58:48.551Z,11.54
2022-11-30T17:01:35.214Z,11.71
2022-11-30T17:04:19.459Z,11.80
2022-11-30T17:06:50.546Z,12.79
2022-11-30T17:09:17.634Z,12.66
2022-11-30T17:11:44.326Z,11.57
2022-11-30T17:14:13.972Z,12.10
2022-11-30T17:16:41.015Z,11.87
2022-11-30T17:19:07.869Z,11.22
2022-11-30T17:21:36.661Z,11.65
2022-11-30T17:24:03.993Z,11.72
2022-11-30T17:26:30.689Z,12.23
2022-11-30T17:28:57.307Z,13.07
2022-11-30T17:31:24.266Z,11.16
2022-11-30T17:33:50.996Z,11.46
2022-11-30T17:36:17.701Z,12.11
2022-11-30T17:38:44.379Z,11.42
2022-11-30T17:41:18.545Z,11.89
2022-11-30T17:43:46.105Z,11.71
2022-11-30T17:46:14.014Z,11.64
2022-11-30T17:48:40.743Z,11.89
2022-11-30T17:51:07.479Z,11.86
2022-11-30T17:53:34.120Z,11.39
2022-11-30T17:56:04.792Z,11.72
2022-11-30T17:58:35.358Z,11.41
2022-11-30T18:01:03.717Z,11.16
2022-11-30T18:03:30.447Z,11.12
2022-11-30T18:06:03.013Z,11.27
2022-11-30T18:08:33.094Z,10.81
2022-11-30T18:10:59.726Z,11.68
2022-11-30T18:13:28.494Z,11.98
2022-11-30T18:16:11.245Z,10.73
2022-11-30T18:18:40.534Z,11.36
2022-11-30T18:21:11.422Z,11.83
2022-11-30T18:23:38.016Z,10.89
2022-11-30T18:26:05.478Z,11.43
2022-11-30T18:28:32.090Z,11.06
2022-11-30T18:30:58.732Z,10.09
2022-11-30T18:33:25.407Z,9.43
2022-11-30T18:35:52.107Z,10.06
2022-11-30T18:38:18.684Z,9.75
2022-11-30T18:40:45.408Z,11.04
2022-11-30T18:43:12.050Z,9.54
2022-11-30T18:45:38.707Z,9.77
2022-11-30T18:48:05.353Z,8.89
2022-11-30T18:50:31.999Z,9.03
2022-11-30T18:52:58.661Z,9.38
2022-11-30T18:55:25.437Z,9.65
2022-11-30T18:57:52.030Z,9.49
2022-11-30T19:00:18.830Z,10.12
2022-11-30T19:02:46.577Z,9.15
2022-11-30T19:05:13.721Z,8.55
2022-11-30T19:07:40.410Z,9.01
2022-11-30T19:10:08.118Z,8.98
2022-11-30T19:12:34.741Z,9.75
2022-11-30T19:15:01.903Z,9.41
2022-11-30T19:17:28.530Z,8.92
2022-11-30T19:19:55.157Z,9.38
2022-11-30T19:22:21.894Z,9.08
2022-11-30T19:24:48.682Z,9.92
2022-11-30T19:27:15.609Z,9.60
2022-11-30T19:29:42.243Z,9.58
2022-11-30T19:32:08.849Z,9.87
2022-11-30T19:34:35.446Z,9.76
2022-11-30T19:37:02.124Z,9.83
2022-11-30T19:39:28.754Z,9.10
2022-11-30T19:41:55.401Z,10.27
2022-11-30T19:44:22.009Z,32.25
2022-11-30T19:46:48.707Z,23.92
2022-11-30T19:49:15.360Z,10.83
2022-11-30T19:51:42.184Z,12.50
2022-11-30T19:54:08.903Z,12.77
2022-11-30T19:56:35.538Z,12.98
2022-11-30T19:59:05.651Z,10.49
2022-11-30T20:01:33.210Z,11.32
2022-11-30T20:04:00.025Z,11.17
2022-11-30T20:06:29.441Z,11.05
2022-11-30T20:08:56.062Z,10.36
2022-11-30T20:11:22.645Z,14.33
2022-11-30T20:13:49.230Z,12.04
2022-11-30T20:16:16.606Z,12.03
2022-11-30T20:18:46.340Z,12.10
2022-11-30T20:21:18.014Z,11.23
2022-11-30T20:23:45.488Z,11.85
2022-11-30T20:26:17.844Z,12.67
2022-11-30T20:28:45.094Z,12.10
2022-11-30T20:31:12.223Z,13.26
2022-11-30T20:33:38.954Z,12.57
2022-11-30T20:36:06.403Z,13.77
2022-11-30T20:38:33.007Z,13.98
2022-11-30T20:40:59.612Z,13.30
2022-11-30T20:43:26.313Z,13.38
2022-11-30T20:45:52.992Z,14.18
2022-11-30T20:48:19.646Z,13.96
2022-11-30T20:51:01.030Z,12.57
2022-11-30T20:53:34.314Z,12.69
2022-11-30T20:56:00.915Z,13.27
2022-11-30T20:58:27.568Z,13.71
2022-11-30T21:00:54.214Z,12.51
2022-11-30T21:03:20.865Z,13.17
2022-11-30T21:05:47.517Z,13.59
2022-11-30T21:08:14.129Z,13.04
2022-11-30T21:10:40.719Z,13.64
2022-11-30T21:13:07.304Z,13.49
2022-11-30T21:15:34.016Z,13.40
2022-11-30T21:18:00.686Z,14.34
2022-11-30T21:20:27.313Z,14.95
2022-11-30T21:22:53.959Z,15.21
2022-11-30T21:25:20.572Z,15.86
2022-11-30T21:27:51.198Z,16.25
2022-11-30T21:30:17.916Z,16.43
2022-11-30T21:32:44.544Z,16.90
2022-11-30T21:35:13.604Z,17.46
2022-11-30T21:37:40.302Z,18.63
2022-11-30T21:40:07.690Z,17.98
2022-11-30T21:42:34.399Z,18.80
2022-11-30T21:45:01.031Z,18.52
2022-11-30T21:47:30.859Z,19.53
2022-11-30T21:49:57.529Z,18.68
2022-11-30T21:52:24.231Z,18.54
2022-11-30T21:54:51.024Z,19.85
2022-11-30T21:57:17.707Z,20.04
2022-11-30T21:59:44.355Z,19.85
2022-11-30T22:02:11.519Z,20.53
2022-11-30T22:04:38.693Z,20.46
2022-11-30T22:07:05.625Z,21.71
2022-11-30T22:09:32.348Z,22.47
2022-11-30T22:11:58.989Z,21.94
2022-11-30T22:14:25.604Z,21.79
2022-11-30T22:16:52.244Z,21.86
2022-11-30T22:19:18.950Z,21.90
2022-11-30T22:21:50.047Z,22.41
2022-11-30T22:24:16.949Z,21.82
2022-11-30T22:26:44.456Z,21.73
2022-11-30T22:29:14.952Z,21.80
2022-11-30T22:31:42.725Z,21.78
2022-11-30T22:34:09.577Z,21.04
2022-11-30T22:36:37.053Z,19.91
2022-11-30T22:39:08.291Z,21.01
2022-11-30T22:41:35.492Z,19.61
2022-11-30T22:44:02.161Z,19.84
2022-11-30T22:46:32.973Z,19.99
2022-11-30T22:49:03.271Z,20.20
2022-11-30T22:51:30.578Z,18.67
2022-11-30T22:53:57.616Z,18.74
2022-11-30T22:56:28.766Z,18.38
2022-11-30T22:58:56.442Z,18.67
2022-11-30T23:01:27.230Z,18.00
2022-11-30T23:03:54.621Z,17.69
2022-11-30T23:06:21.318Z,17.60
2022-11-30T23:08:48.107Z,17.10
2022-11-30T23:11:16.960Z,16.92
2022-11-30T23:13:43.662Z,16.69
2022-11-30T23:16:10.931Z,17.17
2022-11-30T23:18:48.442Z,16.70
2022-11-30T23:21:19.496Z,16.71
2022-11-30T23:23:46.318Z,17.20
2022-11-30T23:26:19.286Z,16.68
2022-11-30T23:28:46.419Z,16.68
2022-11-30T23:31:33.871Z,16.93
2022-11-30T23:34:03.631Z,16.50
2022-11-30T23:36:30.239Z,17.15
2022-11-30T23:38:58.125Z,16.00
2022-11-30T23:41:24.775Z,16.50
2022-11-30T23:43:51.413Z,15.56
2022-11-30T23:46:18.093Z,15.67
2022-11-30T23:48:44.726Z,15.45
2022-11-30T23:51:11.363Z,15.18
2022-11-30T23:53:37.968Z,15.09
2022-11-30T23:56:05.649Z,15.66
2022-11-30T23:58:32.412Z,15.27
